Time;durP1;ratioP1;P1;durP2;ratioP2;P2;SDS_P1;SDS_P2;PMS_P1;PMS_P2;Temp;Humidity;BMP_temperature;BMP_pressure;BME280_temperature;BME280_humidity;BME280_pressure;Samples;Min_cycle;Max_cycle;Signal;HPM_P1;HPM_P2
2022/08/04 00:01:01;;;;;;;;;;;;;;;21.10;64.00;100841.34;5042979;28;19932;-83
2022/08/04 00:03:27;;;;;;;;;;;;;;;21.07;63.95;100848.06;5049732;28;19986;-85
2022/08/04 00:05:56;;;;;;;;;;;;;;;21.04;64.42;100848.53;5032272;28;20389;-83
2022/08/04 00:08:25;;;;;;;;;;;;;;;21.02;63.93;100845.19;5031382;28;20052;-83
2022/08/04 00:10:53;;;;;;;;;;;;;;;20.89;64.50;100839.88;5046865;28;19921;-83
2022/08/04 00:13:22;;;;;;;;;;;;;;;20.94;64.38;100845.50;5025133;28;19929;-83
2022/08/04 00:15:51;;;;;;;;;;;;;;;20.84;64.47;100843.28;5026306;28;19928;-84
2022/08/04 00:18:17;;;;;;;;;;;;;;;20.74;64.99;100842.94;5032782;28;19929;-84
2022/08/04 00:20:43;;;;;;;;;;;;;;;20.79;64.54;100852.16;5049864;28;19929;-82
2022/08/04 00:23:11;;;;;;;;;;;;;;;20.71;64.75;100855.13;5032340;28;19998;-83
2022/08/04 00:25:40;;;;;;;;;;;;;;;20.89;64.31;100854.38;5033083;28;19927;-84
2022/08/04 00:28:06;;;;;;;;;;;;;;;20.92;64.20;100859.38;5047009;28;19928;-83
2022/08/04 00:30:32;;;;;;;;;;;;;;;20.87;64.18;100859.22;5028262;28;19927;-85
2022/08/04 00:32:59;;;;;;;;;;;;;;;20.85;64.14;100862.16;5027978;28;19917;-84
2022/08/04 00:35:27;;;;;;;;;;;;;;;20.85;64.00;100862.16;5030433;28;19921;-83
2022/08/04 00:37:54;;;;;;;;;;;;;;;20.82;64.01;100876.28;5043668;28;19924;-84
2022/08/04 00:40:37;;;;;;;;;;;;;;;20.74;64.25;100864.78;5030954;28;19924;-82
2022/08/04 00:43:02;;;;;;;;;;;;;;;20.74;64.36;100873.81;5039397;28;19929;-82
2022/08/04 00:45:37;;;;;;;;;;;;;;;20.82;64.13;100873.53;5053823;28;19921;-87
2022/08/04 00:48:09;;;;;;;;;;;;;;;20.81;63.96;100868.28;5052379;28;20287;-84
2022/08/04 00:50:40;;;;;;;;;;;;;;;20.77;64.01;100869.81;5051049;28;19975;-84
2022/08/04 00:53:06;;;;;;;;;;;;;;;20.79;64.02;100864.94;5035518;28;19916;-86
2022/08/04 00:55:46;;;;;;;;;;;;;;;20.71;64.05;100863.34;5035717;28;19921;-84
2022/08/04 00:58:30;;;;;;;;;;;;;;;20.82;63.93;100868.09;5037504;28;20047;-84
2022/08/04 01:01:03;;;;;;;;;;;;;;;20.78;64.21;100869.56;5057243;28;19917;-83
2022/08/04 01:03:58;;;;;;;;;;;;;;;20.70;64.33;100875.34;5058576;28;19970;-87
2022/08/04 01:06:23;;;;;;;;;;;;;;;20.64;64.31;100874.31;5054132;28;19921;-84
2022/08/04 01:08:52;;;;;;;;;;;;;;;20.57;64.59;100876.25;5053130;28;20342;-83
2022/08/04 01:11:23;;;;;;;;;;;;;;;20.55;64.43;100877.50;5062272;28;19992;-86
2022/08/04 01:14:10;;;;;;;;;;;;;;;20.57;64.35;100880.91;5069494;28;19921;-83
2022/08/04 01:16:37;;;;;;;;;;;;;;;20.55;64.27;100882.97;5054188;28;19921;-84
2022/08/04 01:19:27;;;;;;;;;;;;;;;20.44;64.72;100882.63;5035529;28;20000;-83
2022/08/04 01:21:52;;;;;;;;;;;;;;;20.54;64.22;100875.84;5046155;28;20008;-84
2022/08/04 01:24:23;;;;;;;;;;;;;;;20.32;64.87;100878.94;5047673;28;20008;-84
2022/08/04 01:27:02;;;;;;;;;;;;;;;20.37;65.00;100881.00;5051832;28;19928;-85
2022/08/04 01:29:47;;;;;;;;;;;;;;;20.33;65.06;100875.16;5034033;28;19931;-84
2022/08/04 01:32:21;;;;;;;;;;;;;;;20.28;65.16;100874.97;5051060;28;19931;-84
2022/08/04 01:34:50;;;;;;;;;;;;;;;20.27;65.25;100870.56;5052338;28;19971;-82
2022/08/04 01:37:27;;;;;;;;;;;;;;;20.30;65.47;100878.34;5016457;28;19921;-82
2022/08/04 01:40:04;;;;;;;;;;;;;;;20.28;65.64;100868.69;5045285;28;19921;-83
2022/08/04 01:42:33;;;;;;;;;;;;;;;20.39;65.49;100873.41;5049141;28;20004;-85
2022/08/04 01:45:02;;;;;;;;;;;;;;;20.42;65.28;100871.09;5052695;28;19920;-85
2022/08/04 01:47:28;;;;;;;;;;;;;;;20.26;65.85;100860.72;5052141;28;20019;-84
2022/08/04 01:49:54;;;;;;;;;;;;;;;20.25;65.56;100859.00;5017427;28;20364;-83
2022/08/04 01:52:23;;;;;;;;;;;;;;;20.25;65.88;100856.28;5051279;28;19916;-82
2022/08/04 01:54:48;;;;;;;;;;;;;;;20.20;66.38;100853.38;5018214;28;20556;-84
2022/08/04 01:57:14;;;;;;;;;;;;;;;20.09;66.96;100845.91;5031483;28;20012;-83
2022/08/04 01:59:40;;;;;;;;;;;;;;;19.98;67.54;100848.28;5027396;28;19923;-83
2022/08/04 02:02:05;;;;;;;;;;;;;;;20.01;67.51;100845.09;5037205;28;20382;-84
2022/08/04 02:04:39;;;;;;;;;;;;;;;19.94;67.81;100848.94;5035862;28;20423;-83
2022/08/04 02:07:15;;;;;;;;;;;;;;;19.98;67.81;100847.44;5028026;28;19925;-82
2022/08/04 02:09:48;;;;;;;;;;;;;;;19.87;68.07;100842.66;5050628;28;19940;-81
2022/08/04 02:12:21;;;;;;;;;;;;;;;19.85;68.04;100840.16;5033046;28;19928;-84
2022/08/04 02:14:55;;;;;;;;;;;;;;;19.85;67.56;100837.41;5052816;28;19921;-83
2022/08/04 02:17:23;;;;;;;;;;;;;;;19.91;67.01;100843.91;5033019;28;19928;-84
2022/08/04 02:19:58;;;;;;;;;;;;;;;19.84;67.14;100843.94;5051818;28;19921;-83
2022/08/04 02:22:24;;;;;;;;;;;;;;;19.83;66.88;100836.84;5050285;28;19982;-84
2022/08/04 02:24:51;;;;;;;;;;;;;;;19.79;67.28;100841.88;5014731;28;19996;-83
2022/08/04 02:27:16;;;;;;;;;;;;;;;19.79;67.03;100851.94;5032825;28;19928;-85
2022/08/04 02:29:47;;;;;;;;;;;;;;;19.79;67.02;100851.94;5040700;28;19920;-83
2022/08/04 02:32:38;;;;;;;;;;;;;;;19.78;66.99;100847.53;5039747;28;20331;-84
2022/08/04 02:35:08;;;;;;;;;;;;;;;19.82;66.35;100851.50;5052040;28;19924;-83
2022/08/04 02:37:52;;;;;;;;;;;;;;;19.82;66.26;100860.53;5029702;28;20063;-83
2022/08/04 02:40:19;;;;;;;;;;;;;;;19.69;66.69;100857.88;5043334;28;19916;-83
2022/08/04 02:42:45;;;;;;;;;;;;;;;19.69;66.74;100862.47;5027462;28;20408;-83
2022/08/04 02:45:11;;;;;;;;;;;;;;;19.63;66.90;100857.88;5050423;28;20316;-83
2022/08/04 02:47:38;;;;;;;;;;;;;;;19.61;67.00;100860.78;5049445;28;19920;-84
2022/08/04 02:50:04;;;;;;;;;;;;;;;19.72;66.33;100859.34;5050653;28;20297;-82
2022/08/04 02:52:31;;;;;;;;;;;;;;;19.58;66.75;100862.06;5032399;28;19951;-83
2022/08/04 02:54:59;;;;;;;;;;;;;;;19.50;67.27;100859.59;5034209;28;20007;-84
2022/08/04 02:57:26;;;;;;;;;;;;;;;19.66;67.21;100851.97;5032174;28;19924;-84
2022/08/04 03:00:09;;;;;;;;;;;;;;;19.73;67.01;100858.25;5033566;28;19924;-83
2022/08/04 03:02:54;;;;;;;;;;;;;;;19.69;67.70;100852.41;5033500;28;19921;-83
2022/08/04 03:05:30;;;;;;;;;;;;;;;19.68;67.68;100856.19;5050064;28;19983;-83
2022/08/04 03:08:05;;;;;;;;;;;;;;;19.77;67.61;100851.31;5026612;28;19921;-83
2022/08/04 03:10:51;;;;;;;;;;;;;;;19.73;67.74;100850.06;5045775;28;20360;-84
2022/08/04 03:13:55;;;;;;;;;;;;;;;19.68;67.92;100848.00;5013571;28;20031;-83
2022/08/04 03:16:23;;;;;;;;;;;;;;;19.79;67.69;100852.78;4955118;28;20354;-84
2022/08/04 03:19:07;;;;;;;;;;;;;;;19.77;67.49;100854.88;4960715;28;20465;-84
2022/08/04 03:21:32;;;;;;;;;;;;;;;19.82;67.21;100856.97;4997814;28;20039;-85
2022/08/04 03:24:08;;;;;;;;;;;;;;;19.93;66.61;100850.00;5013403;28;20044;-82
2022/08/04 03:26:54;;;;;;;;;;;;;;;19.97;66.28;100863.00;5012391;28;20372;-83
2022/08/04 03:29:22;;;;;;;;;;;;;;;19.97;65.82;100860.25;5012293;28;19957;-83
2022/08/04 03:32:06;;;;;;;;;;;;;;;19.88;66.31;100860.69;5029237;28;19982;-83
2022/08/04 03:34:32;;;;;;;;;;;;;;;19.88;65.94;100869.75;5033786;28;19928;-84
2022/08/04 03:37:16;;;;;;;;;;;;;;;20.01;65.14;100869.66;5029739;28;19921;-85
2022/08/04 03:40:02;;;;;;;;;;;;;;;20.06;65.14;100862.72;5033560;28;19921;-84
2022/08/04 03:42:43;;;;;;;;;;;;;;;20.05;65.22;100867.34;5029496;28;19925;-85
2022/08/04 03:45:14;;;;;;;;;;;;;;;20.09;65.12;100859.53;5031619;28;19917;-84
2022/08/04 03:47:44;;;;;;;;;;;;;;;20.06;64.77;100869.00;5008668;28;19921;-84
2022/08/04 03:50:18;;;;;;;;;;;;;;;20.18;64.36;100872.72;5003956;28;19917;-85
2022/08/04 03:53:08;;;;;;;;;;;;;;;20.18;64.13;100872.72;5027367;28;20476;-86
2022/08/04 03:55:52;;;;;;;;;;;;;;;20.27;63.88;100875.19;5029097;28;19952;-85
2022/08/04 03:58:36;;;;;;;;;;;;;;;20.27;63.59;100880.66;5005963;28;19925;-86
2022/08/04 04:01:09;;;;;;;;;;;;;;;20.34;62.90;100882.28;5035141;28;19921;-85
2022/08/04 04:03:39;;;;;;;;;;;;;;;20.44;62.49;100882.63;5018257;28;19974;-84
2022/08/04 04:06:18;;;;;;;;;;;;;;;20.50;62.39;100885.53;5026590;28;19921;-83
2022/08/04 04:08:55;;;;;;;;;;;;;;;20.62;61.75;100881.88;5012345;28;19928;-83
2022/08/04 04:11:37;;;;;;;;;;;;;;;20.75;61.40;100883.69;5011178;28;19921;-83
2022/08/04 04:14:21;;;;;;;;;;;;;;;20.83;61.17;100882.56;5026371;28;19950;-84
2022/08/04 04:17:22;;;;;;;;;;;;;;;20.89;60.84;100872.66;5030472;28;19971;-86
2022/08/04 04:20:07;;;;;;;;;;;;;;;20.89;60.56;100873.50;4972930;28;20295;-85
2022/08/04 04:22:35;;;;;;;;;;;;;;;20.99;60.54;100867.50;5027073;28;19921;-84
2022/08/04 04:25:13;;;;;;;;;;;;;;;21.14;60.34;100875.34;5027180;28;19917;-84
2022/08/04 04:27:44;;;;;;;;;;;;;;;21.15;59.83;100872.41;5031573;28;19932;-85
2022/08/04 04:30:25;;;;;;;;;;;;;;;21.21;59.76;100871.50;5026745;28;19921;-86
2022/08/04 04:33:09;;;;;;;;;;;;;;;21.34;59.71;100872.41;5011738;28;19925;-85
2022/08/04 04:35:44;;;;;;;;;;;;;;;21.47;58.94;100864.09;5023580;28;20030;-85
2022/08/04 04:38:13;;;;;;;;;;;;;;;21.59;58.05;100861.44;5014459;28;19917;-83
2022/08/04 04:40:55;;;;;;;;;;;;;;;21.75;57.72;100863.56;5034931;28;19925;-83
2022/08/04 04:43:29;;;;;;;;;;;;;;;22.02;56.74;100866.75;5012214;28;19921;-85
2022/08/04 04:46:13;;;;;;;;;;;;;;;22.22;56.13;100866.53;5029261;28;19921;-83
2022/08/04 04:49:11;;;;;;;;;;;;;;;22.48;55.21;100859.78;5014891;28;20071;-81
2022/08/04 04:51:43;;;;;;;;;;;;;;;22.89;54.12;100860.78;5006906;28;19925;-81
2022/08/04 04:54:11;;;;;;;;;;;;;;;23.20;53.26;100867.00;5029137;28;19921;-83
2022/08/04 04:56:36;;;;;;;;;;;;;;;23.52;52.22;100863.88;5027693;28;19987;-82
2022/08/04 04:59:04;;;;;;;;;;;;;;;23.83;51.67;100865.34;5015442;28;19960;-82
2022/08/04 05:01:36;;;;;;;;;;;;;;;24.08;50.69;100862.28;5026344;28;19929;-83
2022/08/04 05:04:20;;;;;;;;;;;;;;;24.38;50.29;100869.44;5029828;28;19924;-81
2022/08/04 05:07:07;;;;;;;;;;;;;;;24.67;48.82;100869.38;5027151;28;19928;-83
2022/08/04 05:09:52;;;;;;;;;;;;;;;24.92;47.90;100869.81;5025550;28;19952;-83
2022/08/04 05:12:26;;;;;;;;;;;;;;;25.15;47.36;100870.69;5058383;28;20016;-82
2022/08/04 05:14:51;;;;;;;;;;;;;;;25.41;46.70;100877.41;5059303;28;19925;-85
2022/08/04 05:17:27;;;;;;;;;;;;;;;25.60;46.29;100878.75;5061421;28;20027;-87
2022/08/04 05:20:12;;;;;;;;;;;;;;;25.71;45.68;100888.00;5045926;28;19925;-82
2022/08/04 05:23:00;;;;;;;;;;;;;;;25.90;45.05;100872.84;5053868;28;19959;-84
2022/08/04 05:25:37;;;;;;;;;;;;;;;26.17;44.56;100877.50;5045112;28;20034;-85
2022/08/04 05:28:29;;;;;;;;;;;;;;;26.41;44.06;100879.94;5044652;28;19921;-85
2022/08/04 05:31:03;;;;;;;;;;;;;;;26.64;43.41;100874.13;5049319;28;19920;-84
2022/08/04 05:33:48;;;;;;;;;;;;;;;26.76;43.35;100882.22;5035375;28;19921;-84
2022/08/04 05:36:38;;;;;;;;;;;;;;;27.02;42.65;100883.25;5042786;28;20134;-82
2022/08/04 05:39:14;;;;;;;;;;;;;;;27.31;41.46;100874.63;5041760;28;19921;-85
2022/08/04 05:42:01;;;;;;;;;;;;;;;27.40;41.68;100874.97;5044991;28;19921;-84
2022/08/04 05:44:27;;;;;;;;;;;;;;;27.75;41.54;100888.09;5039480;28;19925;-85
2022/08/04 05:46:58;;;;;;;;;;;;;;;27.90;40.64;100877.13;5027364;28;19927;-84
2022/08/04 05:49:25;;;;;;;;;;;;;;;27.97;40.40;100874.94;5036100;28;19921;-84
2022/08/04 05:51:54;;;;;;;;;;;;;;;28.06;40.63;100880.75;5019425;28;20302;-82
2022/08/04 05:54:20;;;;;;;;;;;;;;;28.28;39.81;100877.75;5034204;28;20366;-83
2022/08/04 05:56:51;;;;;;;;;;;;;;;28.51;39.65;100881.16;5035033;28;19986;-82
2022/08/04 05:59:24;;;;;;;;;;;;;;;28.79;38.76;100872.28;5031845;28;19933;-85
2022/08/04 06:01:50;;;;;;;;;;;;;;;28.99;38.31;100879.75;5042473;28;20004;-85
2022/08/04 06:04:16;;;;;;;;;;;;;;;29.09;38.03;100875.34;5052995;28;19932;-86
2022/08/04 06:06:42;;;;;;;;;;;;;;;29.27;38.21;100876.66;5029000;28;19974;-88
2022/08/04 06:09:10;;;;;;;;;;;;;;;29.56;37.64;100883.22;5048977;28;19971;-84
2022/08/04 06:11:40;;;;;;;;;;;;;;;29.75;37.37;100877.09;5021380;28;19921;-85
2022/08/04 06:14:24;;;;;;;;;;;;;;;29.96;37.03;100870.31;5031811;28;19968;-86
2022/08/04 06:16:50;;;;;;;;;;;;;;;29.97;37.01;100869.22;5034163;28;20281;-84
2022/08/04 06:19:19;;;;;;;;;;;;;;;30.05;36.87;100870.56;5028264;28;20003;-87
2022/08/04 06:21:49;;;;;;;;;;;;;;;30.24;36.36;100862.38;5045167;28;19944;-87
2022/08/04 06:24:20;;;;;;;;;;;;;;;30.27;36.19;100868.22;5038512;28;19925;-84
2022/08/04 06:26:47;;;;;;;;;;;;;;;30.41;35.90;100868.38;5040070;28;20008;-87
2022/08/04 06:29:21;;;;;;;;;;;;;;;30.69;35.86;100868.72;5023260;28;20074;-87
2022/08/04 06:31:57;;;;;;;;;;;;;;;30.82;35.23;100856.94;5021778;28;20350;-86
2022/08/04 06:34:31;;;;;;;;;;;;;;;30.80;35.63;100853.63;5030747;28;19920;-86
2022/08/04 06:36:56;;;;;;;;;;;;;;;30.90;35.23;100861.88;5046253;28;19928;-87
2022/08/04 06:39:24;;;;;;;;;;;;;;;31.09;35.01;100856.44;5026771;28;19921;-85
2022/08/04 06:41:55;;;;;;;;;;;;;;;31.11;34.89;100853.34;5046146;28;20074;-82
2022/08/04 06:44:22;;;;;;;;;;;;;;;31.23;34.83;100856.53;5051627;28;19963;-85
2022/08/04 06:46:49;;;;;;;;;;;;;;;31.17;34.71;100856.91;5031702;28;19924;-85
2022/08/04 06:49:16;;;;;;;;;;;;;;;31.40;34.19;100849.69;5033691;28;19920;-85
2022/08/04 06:51:41;;;;;;;;;;;;;;;31.55;34.25;100855.09;5029466;28;19921;-84
2022/08/04 06:54:06;;;;;;;;;;;;;;;31.50;33.89;100853.22;5028608;28;20229;-84
2022/08/04 06:56:32;;;;;;;;;;;;;;;31.83;33.71;100852.50;5030152;28;19927;-84
2022/08/04 06:58:59;;;;;;;;;;;;;;;31.94;33.12;100856.81;5007797;28;19921;-88
2022/08/04 07:01:24;;;;;;;;;;;;;;;31.89;33.34;100863.28;5013310;28;19925;-84
2022/08/04 07:03:50;;;;;;;;;;;;;;;31.76;33.18;100862.03;5026018;28;19982;-84
2022/08/04 07:06:15;;;;;;;;;;;;;;;32.14;32.92;100870.41;5028817;28;19921;-85
2022/08/04 07:08:40;;;;;;;;;;;;;;;32.35;32.15;100853.44;5036621;28;19974;-84
2022/08/04 07:11:06;;;;;;;;;;;;;;;32.57;32.00;100867.56;5008630;28;19921;-84
2022/08/04 07:13:31;;;;;;;;;;;;;;;32.72;31.97;100858.13;5029273;28;19975;-85
2022/08/04 07:15:57;;;;;;;;;;;;;;;32.80;31.65;100854.66;5011798;28;19917;-82
2022/08/04 07:18:23;;;;;;;;;;;;;;;32.62;31.80;100851.91;5019649;28;19920;-83
2022/08/04 07:20:48;;;;;;;;;;;;;;;32.94;30.99;100851.88;5039568;28;19959;-84
2022/08/04 07:23:16;;;;;;;;;;;;;;;33.03;30.98;100851.97;5014772;28;20446;-84
2022/08/04 07:25:42;;;;;;;;;;;;;;;33.34;30.80;100855.03;5014536;28;19924;-83
2022/08/04 07:28:07;;;;;;;;;;;;;;;33.57;30.26;100855.16;4994982;28;19914;-84
2022/08/04 07:30:33;;;;;;;;;;;;;;;33.83;30.01;100861.00;5026012;28;20286;-84
2022/08/04 07:32:58;;;;;;;;;;;;;;;33.98;29.35;100860.66;5013224;28;20336;-86
2022/08/04 07:35:24;;;;;;;;;;;;;;;34.22;28.81;100857.59;5013823;28;19915;-85
2022/08/04 07:37:49;;;;;;;;;;;;;;;34.33;28.68;100849.81;5012742;28;19917;-85
2022/08/04 07:40:14;;;;;;;;;;;;;;;34.37;28.29;100856.44;5012554;28;19917;-85
2022/08/04 07:42:40;;;;;;;;;;;;;;;34.55;28.40;100846.19;5013283;28;19917;-84
2022/08/04 07:45:05;;;;;;;;;;;;;;;34.82;27.88;100844.44;5013386;28;20377;-85
2022/08/04 07:47:31;;;;;;;;;;;;;;;34.96;27.83;100842.38;5011312;28;19926;-85
2022/08/04 07:49:57;;;;;;;;;;;;;;;35.06;27.75;100844.88;5013136;28;19917;-84
2022/08/04 07:52:22;;;;;;;;;;;;;;;35.26;27.08;100845.47;5012482;28;19925;-85
2022/08/04 07:54:49;;;;;;;;;;;;;;;35.21;27.29;100845.59;5029706;28;19922;-85
2022/08/04 07:57:15;;;;;;;;;;;;;;;35.32;27.10;100843.34;5030197;28;19921;-85
2022/08/04 07:59:40;;;;;;;;;;;;;;;35.18;27.10;100846.25;5029611;28;19921;-84
2022/08/04 08:02:06;;;;;;;;;;;;;;;35.66;26.94;100851.88;5024574;28;19921;-83
2022/08/04 08:04:31;;;;;;;;;;;;;;;35.79;26.92;100841.69;5013173;28;19967;-84
2022/08/04 08:06:57;;;;;;;;;;;;;;;35.30;27.10;100838.09;5027581;28;19913;-85
2022/08/04 08:09:22;;;;;;;;;;;;;;;35.03;28.03;100842.72;5030898;28;19920;-86
2022/08/04 08:11:49;;;;;;;;;;;;;;;35.14;28.03;100843.28;5024365;28;19925;-84
2022/08/04 08:14:14;;;;;;;;;;;;;;;34.83;27.71;100834.91;5010256;28;19917;-85
2022/08/04 08:16:40;;;;;;;;;;;;;;;35.21;27.38;100840.03;5013772;28;19947;-85
2022/08/04 08:19:06;;;;;;;;;;;;;;;35.32;27.23;100841.38;5035866;28;19936;-85
2022/08/04 08:21:31;;;;;;;;;;;;;;;35.25;27.25;100838.25;5024758;28;19928;-84
2022/08/04 08:23:57;;;;;;;;;;;;;;;35.04;27.08;100849.94;5044220;28;19917;-84
2022/08/04 08:26:22;;;;;;;;;;;;;;;34.56;27.78;100845.06;5049175;28;19924;-84
2022/08/04 08:28:48;;;;;;;;;;;;;;;34.35;27.91;100843.91;5020971;28;19921;-85
2022/08/04 08:31:13;;;;;;;;;;;;;;;34.97;26.44;100838.41;5030709;28;19928;-86
2022/08/04 08:33:38;;;;;;;;;;;;;;;34.76;27.11;100843.72;5024126;28;19963;-85
2022/08/04 08:36:17;;;;;;;;;;;;;;;34.61;27.49;100835.78;5019661;28;19928;-83
2022/08/04 08:38:52;;;;;;;;;;;;;;;34.96;26.97;100828.41;5015008;28;19924;-83
2022/08/04 08:41:36;;;;;;;;;;;;;;;36.18;25.49;100850.31;5027002;28;19909;-84
2022/08/04 08:44:18;;;;;;;;;;;;;;;35.64;26.42;100848.56;5045868;28;19913;-83
2022/08/04 08:47:06;;;;;;;;;;;;;;;35.36;25.93;100842.38;5025827;28;19917;-84
2022/08/04 08:49:51;;;;;;;;;;;;;;;34.86;27.16;100845.41;5043747;28;20284;-85
2022/08/04 08:52:16;;;;;;;;;;;;;;;34.36;28.35;100840.81;5048265;28;19920;-84
2022/08/04 08:54:41;;;;;;;;;;;;;;;35.49;26.26;100838.63;5029529;28;20363;-84
2022/08/04 08:57:22;;;;;;;;;;;;;;;36.22;25.58;100832.53;5043487;28;20426;-85
2022/08/04 08:59:50;;;;;;;;;;;;;;;37.38;23.82;100837.13;5051627;28;19920;-84
2022/08/04 09:02:43;;;;;;;;;;;;;;;37.24;23.82;100835.75;5030175;28;19931;-83
2022/08/04 09:05:12;;;;;;;;;;;;;;;39.08;21.73;100833.91;5024357;28;19917;-85
2022/08/04 09:07:43;;;;;;;;;;;;;;;40.15;20.70;100822.38;5024286;28;19931;-86
2022/08/04 09:10:20;;;;;;;;;;;;;;;40.59;20.63;100830.88;5038576;28;19956;-88
2022/08/04 09:12:46;;;;;;;;;;;;;;;40.74;20.03;100820.81;5054383;28;19928;-86
2022/08/04 09:15:30;;;;;;;;;;;;;;;40.46;20.42;100815.22;5064865;28;19925;-89
2022/08/04 09:18:18;;;;;;;;;;;;;;;41.88;18.19;100813.50;5052333;28;19990;-87
2022/08/04 09:20:55;;;;;;;;;;;;;;;40.72;19.99;100809.13;5047850;28;19921;-86
2022/08/04 09:23:39;;;;;;;;;;;;;;;41.32;18.91;100815.44;5009382;28;20396;-86
2022/08/04 09:26:07;;;;;;;;;;;;;;;40.06;20.19;100821.72;5009305;28;20015;-87
2022/08/04 09:28:44;;;;;;;;;;;;;;;39.20;21.39;100810.59;5039724;28;20110;-85
2022/08/04 09:31:13;;;;;;;;;;;;;;;38.47;21.96;100814.06;5028239;28;20023;-83
2022/08/04 09:33:42;;;;;;;;;;;;;;;37.69;22.95;100816.34;5035242;28;19933;-86
2022/08/04 09:36:17;;;;;;;;;;;;;;;39.45;20.73;100815.06;5036996;28;20304;-86
2022/08/04 09:38:50;;;;;;;;;;;;;;;38.85;21.26;100814.63;5038259;28;19921;-82
2022/08/04 09:41:35;;;;;;;;;;;;;;;38.35;21.72;100815.66;5018868;28;20365;-85
2022/08/04 09:44:04;;;;;;;;;;;;;;;37.50;23.27;100818.78;5056588;28;19916;-88
2022/08/04 09:46:34;;;;;;;;;;;;;;;36.84;23.75;100813.63;5048802;28;19921;-87
2022/08/04 09:49:06;;;;;;;;;;;;;;;36.35;24.14;100820.31;5021047;28;20439;-86
2022/08/04 09:51:42;;;;;;;;;;;;;;;35.98;24.51;100812.56;5038601;28;19927;-85
2022/08/04 09:54:13;;;;;;;;;;;;;;;38.68;21.77;100809.25;5021886;28;19917;-87
2022/08/04 09:56:48;;;;;;;;;;;;;;;38.94;21.48;100806.13;5027165;28;20058;-84
2022/08/04 09:59:16;;;;;;;;;;;;;;;40.50;20.16;100808.50;5053984;28;19974;-83
2022/08/04 10:01:41;;;;;;;;;;;;;;;41.26;19.14;100808.47;5036134;28;19924;-86
2022/08/04 10:04:08;;;;;;;;;;;;;;;40.39;20.13;100806.56;5036909;28;19912;-85
2022/08/04 10:06:49;;;;;;;;;;;;;;;38.99;24.04;100830.38;5035599;28;19924;-84
2022/08/04 10:09:14;;;;;;;;;;;;;;;36.60;29.26;100823.44;5058094;28;20450;-84
2022/08/04 10:11:46;;;;;;;;;;;;;;;35.63;31.71;100823.72;5032867;28;19917;-85
2022/08/04 10:14:30;;;;;;;;;;;;;;;36.52;31.62;100822.25;5053162;28;19931;-86
2022/08/04 10:17:15;;;;;;;;;;;;;;;37.14;29.45;100826.56;5048417;28;19924;-84
2022/08/04 10:19:40;;;;;;;;;;;;;;;37.07;30.08;100819.84;5017012;28;19956;-86
2022/08/04 10:22:11;;;;;;;;;;;;;;;35.72;31.54;100818.97;5033064;28;20014;-84
2022/08/04 10:24:45;;;;;;;;;;;;;;;35.39;32.95;100819.38;5032185;28;19924;-84
2022/08/04 10:27:21;;;;;;;;;;;;;;;37.12;29.83;100819.66;5039107;28;19929;-84
2022/08/04 10:29:46;;;;;;;;;;;;;;;35.64;31.45;100817.00;5008460;28;19976;-83
2022/08/04 10:32:18;;;;;;;;;;;;;;;34.10;34.58;100832.25;5049612;28;19928;-83
2022/08/04 10:34:47;;;;;;;;;;;;;;;32.74;37.19;100821.63;5054612;28;19917;-82
2022/08/04 10:37:20;;;;;;;;;;;;;;;31.43;39.99;100829.69;5034095;28;20019;-82
2022/08/04 10:42:35;;;;;;;;;;;;;;;34.18;36.85;100813.91;5034530;28;20281;-86
2022/08/04 10:45:12;;;;;;;;;;;;;;;34.96;36.07;100820.03;5019322;28;19917;-86
2022/08/04 10:47:41;;;;;;;;;;;;;;;35.69;34.85;100822.44;5053797;28;20016;-85
2022/08/04 10:50:08;;;;;;;;;;;;;;;34.89;36.24;100819.66;5037072;28;20016;-84
2022/08/04 10:52:37;;;;;;;;;;;;;;;34.99;35.68;100815.75;5054745;28;19917;-85
2022/08/04 10:55:15;;;;;;;;;;;;;;;36.39;33.31;100819.66;5020429;28;20320;-84
2022/08/04 10:58:00;;;;;;;;;;;;;;;37.00;31.91;100820.34;5020033;28;19916;-85
2022/08/04 11:00:25;;;;;;;;;;;;;;;37.67;31.24;100815.88;5017916;28;20030;-84
2022/08/04 11:02:51;;;;;;;;;;;;;;;36.89;32.29;100821.84;5034916;28;19913;-83
2022/08/04 11:05:28;;;;;;;;;;;;;;;34.39;36.15;100828.19;5032865;28;19958;-86
2022/08/04 11:07:56;;;;;;;;;;;;;;;33.42;38.76;100820.88;5033425;28;19940;-84
2022/08/04 11:10:21;;;;;;;;;;;;;;;32.45;39.83;100819.88;5036445;28;19970;-86
2022/08/04 11:12:48;;;;;;;;;;;;;;;33.10;39.07;100823.78;5029473;28;19921;-84
2022/08/04 11:15:29;;;;;;;;;;;;;;;32.61;39.96;100822.41;5035843;28;19963;-86
2022/08/04 11:18:05;;;;;;;;;;;;;;;32.94;39.65;100810.13;5019579;28;19917;-84
2022/08/04 11:20:57;;;;;;;;;;;;;;;32.36;41.08;100816.97;5025145;28;20004;-86
2022/08/04 11:23:23;;;;;;;;;;;;;;;32.63;40.07;100811.81;5036774;28;19921;-82
2022/08/04 11:25:50;;;;;;;;;;;;;;;32.27;41.11;100812.41;5045883;28;19925;-86
2022/08/04 11:28:21;;;;;;;;;;;;;;;31.70;42.81;100818.78;5051665;28;19925;-82
2022/08/04 11:30:56;;;;;;;;;;;;;;;31.13;43.87;100812.25;5029545;28;19964;-83
2022/08/04 11:33:31;;;;;;;;;;;;;;;31.47;43.60;100816.88;5024656;28;20008;-81
2022/08/04 11:35:59;;;;;;;;;;;;;;;31.50;43.47;100821.81;5046488;28;19913;-83
2022/08/04 11:38:31;;;;;;;;;;;;;;;31.34;44.42;100812.81;5024088;28;19924;-83
2022/08/04 11:40:57;;;;;;;;;;;;;;;31.86;42.96;100813.81;5030457;28;20019;-83
2022/08/04 11:43:34;;;;;;;;;;;;;;;31.93;42.40;100819.00;5026180;28;19923;-82
2022/08/04 11:46:01;;;;;;;;;;;;;;;31.88;42.80;100822.69;5046543;28;19971;-89
2022/08/04 11:48:28;;;;;;;;;;;;;;;31.89;43.26;100818.78;5035422;28;19928;-84
2022/08/04 11:50:55;;;;;;;;;;;;;;;32.27;42.58;100817.97;5031340;28;19936;-82
2022/08/04 11:53:22;;;;;;;;;;;;;;;31.49;43.75;100809.03;5034854;28;19917;-85
2022/08/04 11:55:49;;;;;;;;;;;;;;;31.12;44.53;100799.50;5043066;28;19913;-81
2022/08/04 11:58:15;;;;;;;;;;;;;;;31.73;43.81;100815.41;5028233;28;19917;-84
2022/08/04 12:00:41;;;;;;;;;;;;;;;31.16;44.82;100811.63;5031379;28;19919;-81
2022/08/04 12:03:24;;;;;;;;;;;;;;;30.54;45.82;100810.59;5024748;28;19975;-81
2022/08/04 12:05:52;;;;;;;;;;;;;;;30.84;45.47;100809.53;5011362;28;19928;-83
2022/08/04 12:08:44;;;;;;;;;;;;;;;30.58;45.40;100806.09;5043737;28;19921;-82
2022/08/04 12:11:15;;;;;;;;;;;;;;;30.31;46.55;100813.00;5021816;28;19991;-84
2022/08/04 12:13:43;;;;;;;;;;;;;;;30.64;45.86;100804.94;5020949;28;20088;-83
2022/08/04 12:16:29;;;;;;;;;;;;;;;30.87;44.83;100803.38;5045263;28;19920;-81
2022/08/04 12:18:58;;;;;;;;;;;;;;;31.17;44.48;100807.75;5030743;28;20296;-85
2022/08/04 12:21:24;;;;;;;;;;;;;;;31.18;44.55;100806.63;5031041;28;19935;-84
2022/08/04 12:23:49;;;;;;;;;;;;;;;30.91;45.07;100812.78;5034512;28;20391;-83
2022/08/04 12:26:22;;;;;;;;;;;;;;;30.01;46.64;100814.84;5051013;28;20388;-84
2022/08/04 12:28:48;;;;;;;;;;;;;;;30.41;45.99;100804.59;5050494;28;19924;-84
2022/08/04 12:31:16;;;;;;;;;;;;;;;30.49;46.19;100792.88;5049987;28;20343;-82
2022/08/04 12:33:58;;;;;;;;;;;;;;;30.34;46.82;100801.31;5022539;28;19975;-83
2022/08/04 12:36:26;;;;;;;;;;;;;;;29.40;48.62;100809.63;5032281;28;19917;-83
2022/08/04 12:38:58;;;;;;;;;;;;;;;29.10;49.30;100805.84;5008227;28;20429;-82
2022/08/04 12:41:24;;;;;;;;;;;;;;;28.66;50.76;100800.94;5044670;28;19996;-82
2022/08/04 12:43:50;;;;;;;;;;;;;;;28.46;51.48;100795.41;5028354;28;19913;-84
2022/08/04 12:46:22;;;;;;;;;;;;;;;29.07;50.11;100795.34;5037646;28;19920;-84
2022/08/04 12:48:48;;;;;;;;;;;;;;;29.39;49.26;100802.44;5048344;28;20287;-82
2022/08/04 12:51:14;;;;;;;;;;;;;;;29.26;49.97;100803.84;5035395;28;19925;-83
2022/08/04 12:53:40;;;;;;;;;;;;;;;29.60;49.16;100795.69;5037159;28;20270;-82
2022/08/04 12:56:10;;;;;;;;;;;;;;;29.88;48.21;100798.88;5054071;28;20008;-82
2022/08/04 12:58:42;;;;;;;;;;;;;;;29.88;47.81;100793.34;5036529;28;20405;-85
2022/08/04 13:01:14;;;;;;;;;;;;;;;29.99;47.28;100796.84;5054199;28;19917;-83
2022/08/04 13:03:40;;;;;;;;;;;;;;;29.70;48.47;100796.78;5054306;28;19948;-81